Time;durP1;ratioP1;P1;durP2;ratioP2;P2;SDS_P1;SDS_P2;PMS_P1;PMS_P2;Temp;Humidity;BMP_temperature;BMP_pressure;BME280_temperature;BME280_humidity;BME280_pressure;Samples;Min_cycle;Max_cycle;Signal;HPM_P1;HPM_P2
2023/05/09 00:00:45;;;;;;;6.00;5.57;;;16.00;99.90;;;;;;5146651;27;20447;-68
2023/05/09 00:03:13;;;;;;;3.80;3.60;;;16.00;99.90;;;;;;5141188;27;20561;-68
2023/05/09 00:05:40;;;;;;;5.40;5.20;;;16.00;99.90;;;;;;5146327;27;21018;-69
2023/05/09 00:08:07;;;;;;;2.43;2.33;;;15.90;99.90;;;;;;5142708;27;20585;-67
2023/05/09 00:10:36;;;;;;;4.00;3.80;;;15.90;99.90;;;;;;5137663;27;21043;-68
2023/05/09 00:13:03;;;;;;;2.80;2.70;;;15.90;99.90;;;;;;5150706;27;21101;-68
2023/05/09 00:15:30;;;;;;;2.80;2.70;;;15.90;99.90;;;;;;5139070;27;20510;-67
2023/05/09 00:17:58;;;;;;;3.83;3.70;;;15.80;99.90;;;;;;5136847;27;20790;-67
2023/05/09 00:20:24;;;;;;;4.13;3.80;;;15.80;99.90;;;;;;5144379;27;20456;-67
2023/05/09 00:22:51;;;;;;;6.43;3.90;;;15.80;99.90;;;;;;5134871;27;20470;-68
2023/05/09 00:25:18;;;;;;;2.53;2.43;;;15.70;99.90;;;;;;5141487;27;20455;-67
2023/05/09 00:27:47;;;;;;;2.63;2.53;;;15.60;99.90;;;;;;5145118;27;21102;-68
2023/05/09 00:30:14;;;;;;;3.67;3.57;;;15.60;99.90;;;;;;5137935;27;20798;-68
2023/05/09 00:32:41;;;;;;;2.77;2.67;;;15.60;99.90;;;;;;5146413;27;20460;-68
2023/05/09 00:35:09;;;;;;;2.30;2.20;;;15.70;99.90;;;;;;5139159;27;20455;-67
2023/05/09 00:37:36;;;;;;;2.57;2.47;;;15.80;99.90;;;;;;5143663;27;20459;-66
2023/05/09 00:40:05;;;;;;;3.77;3.60;;;15.80;99.90;;;;;;5138936;27;20974;-68
2023/05/09 00:42:31;;;;;;;2.60;2.50;;;15.80;99.90;;;;;;5139478;27;20451;-68
2023/05/09 00:45:00;;;;;;;2.63;2.53;;;15.80;99.90;;;;;;5138732;27;20452;-68
2023/05/09 00:47:28;;;;;;;22.73;4.23;;;15.80;99.90;;;;;;5146426;27;21055;-67
2023/05/09 00:49:55;;;;;;;4.40;3.70;;;15.80;99.90;;;;;;5143397;27;20545;-69
2023/05/09 00:52:24;;;;;;;5.17;2.97;;;15.70;99.90;;;;;;5143090;27;20455;-69
2023/05/09 00:54:52;;;;;;;2.77;2.67;;;15.80;99.90;;;;;;5131905;27;20513;-68
2023/05/09 00:57:19;;;;;;;9.67;4.20;;;15.80;99.90;;;;;;5139460;27;20973;-69
2023/05/09 00:59:46;;;;;;;2.63;2.53;;;15.80;99.90;;;;;;5147902;27;20902;-68
2023/05/09 01:02:16;;;;;;;2.90;2.70;;;15.80;99.90;;;;;;5141363;27;20972;-69
2023/05/09 01:04:43;;;;;;;3.20;3.00;;;15.80;99.90;;;;;;5132815;27;20505;-68
2023/05/09 01:07:17;;;;;;;2.73;2.53;;;15.70;99.90;;;;;;5137007;27;20456;-68
2023/05/09 01:09:50;;;;;;;1.90;1.80;;;15.70;99.90;;;;;;5147100;27;20578;-68
2023/05/09 01:12:31;;;;;;;1.90;1.80;;;15.60;99.90;;;;;;5135611;27;20464;-67
2023/05/09 01:15:03;;;;;;;2.70;2.60;;;15.60;99.90;;;;;;5144276;27;20531;-68
2023/05/09 01:17:41;;;;;;;4.03;2.90;;;15.70;99.90;;;;;;5135807;27;20472;-68
2023/05/09 01:20:17;;;;;;;3.20;3.10;;;15.80;99.90;;;;;;5141624;27;20985;-68
2023/05/09 01:22:49;;;;;;;2.40;2.30;;;15.70;99.90;;;;;;5140534;27;20479;-68
2023/05/09 01:25:43;;;;;;;5.00;4.70;;;15.60;99.90;;;;;;5132110;27;20978;-68
2023/05/09 01:28:16;;;;;;;2.13;2.03;;;15.60;99.90;;;;;;5143832;27;20468;-67
2023/05/09 01:30:46;;;;;;;2.13;2.03;;;15.70;99.90;;;;;;5148226;27;21370;-69
2023/05/09 01:33:18;;;;;;;2.27;2.17;;;15.60;99.90;;;;;;5138914;27;20852;-66
2023/05/09 01:35:48;;;;;;;2.10;2.00;;;15.60;99.90;;;;;;5143096;27;20996;-67
2023/05/09 01:38:19;;;;;;;2.77;2.67;;;15.70;99.90;;;;;;5140257;27;20513;-67
2023/05/09 01:40:51;;;;;;;3.83;3.53;;;15.70;99.90;;;;;;5143157;27;20499;-66
2023/05/09 01:43:19;;;;;;;2.60;2.50;;;15.70;99.90;;;;;;5137710;27;20467;-66
2023/05/09 01:45:48;;;;;;;2.20;2.10;;;15.70;99.90;;;;;;5139998;27;20934;-66
2023/05/09 01:48:16;;;;;;;3.90;3.53;;;15.60;99.90;;;;;;5139168;27;20532;-67
2023/05/09 01:50:44;;;;;;;3.40;3.30;;;15.70;99.90;;;;;;5138193;27;21010;-67
2023/05/09 01:53:12;;;;;;;2.20;2.10;;;15.70;99.90;;;;;;5149039;27;20920;-66
2023/05/09 01:55:40;;;;;;;3.23;3.13;;;15.80;99.90;;;;;;5146432;27;20460;-67
2023/05/09 01:58:09;;;;;;;2.50;2.40;;;15.80;99.90;;;;;;5144619;27;20538;-67
2023/05/09 02:00:37;;;;;;;2.33;2.23;;;15.80;99.90;;;;;;5146306;27;20451;-67
2023/05/09 02:03:06;;;;;;;2.10;2.00;;;15.80;99.90;;;;;;5140986;27;20512;-67
2023/05/09 02:05:34;;;;;;;2.30;2.20;;;15.80;99.90;;;;;;5146778;27;20459;-67
2023/05/09 02:08:02;;;;;;;2.10;2.00;;;15.90;99.90;;;;;;5142748;27;20460;-67
2023/05/09 02:10:32;;;;;;;2.30;2.20;;;16.00;99.90;;;;;;5143062;27;20447;-67
2023/05/09 02:12:59;;;;;;;2.50;2.40;;;16.00;99.90;;;;;;5141831;27;20451;-67
2023/05/09 02:15:26;;;;;;;2.30;2.20;;;16.00;99.90;;;;;;5136962;27;20470;-66
2023/05/09 02:17:53;;;;;;;2.70;2.60;;;15.90;99.90;;;;;;5138193;27;21398;-66
2023/05/09 02:20:22;;;;;;;2.50;2.40;;;15.90;99.90;;;;;;5134714;27;20463;-67
2023/05/09 02:22:49;;;;;;;5.13;4.93;;;15.90;99.90;;;;;;5138546;27;20456;-67
2023/05/09 02:25:17;;;;;;;2.50;2.40;;;15.90;99.90;;;;;;5140367;27;20467;-68
2023/05/09 02:27:46;;;;;;;2.67;2.57;;;15.90;99.90;;;;;;5133943;27;20499;-66
2023/05/09 02:30:19;;;;;;;2.80;2.70;;;15.90;99.90;;;;;;5137355;27;20486;-67
2023/05/09 02:32:48;;;;;;;2.80;2.70;;;16.00;99.90;;;;;;5147895;27;20458;-66
2023/05/09 02:35:17;;;;;;;2.80;2.70;;;15.90;99.90;;;;;;5132377;27;20460;-67
2023/05/09 02:37:46;;;;;;;2.93;2.83;;;16.00;99.90;;;;;;5142270;27;20451;-67
2023/05/09 02:40:14;;;;;;;3.00;2.90;;;15.90;99.90;;;;;;5147827;27;20492;-66
2023/05/09 02:42:41;;;;;;;3.20;3.10;;;16.00;99.90;;;;;;5143237;27;20957;-68
2023/05/09 02:45:10;;;;;;;3.30;3.20;;;15.90;99.90;;;;;;5134621;27;20542;-67
2023/05/09 02:47:37;;;;;;;3.20;3.10;;;16.00;99.90;;;;;;5134209;27;20860;-66
2023/05/09 02:50:04;;;;;;;3.67;3.57;;;16.00;99.90;;;;;;5138433;27;20520;-67
2023/05/09 02:52:32;;;;;;;3.27;3.17;;;16.00;99.90;;;;;;5147043;27;20470;-66
2023/05/09 02:55:01;;;;;;;3.70;3.60;;;15.90;99.90;;;;;;5143479;27;20462;-66
2023/05/09 02:57:28;;;;;;;3.40;3.30;;;16.00;99.90;;;;;;5146303;27;20463;-67
2023/05/09 02:59:55;;;;;;;3.40;3.30;;;16.00;99.90;;;;;;5135670;27;20868;-67
2023/05/09 03:02:22;;;;;;;3.50;3.40;;;16.00;99.90;;;;;;5135443;27;20459;-66
2023/05/09 03:04:49;;;;;;;3.40;3.30;;;16.00;99.90;;;;;;5138302;27;20458;-66
2023/05/09 03:07:16;;;;;;;3.67;3.57;;;16.10;99.90;;;;;;5141093;27;20459;-68
2023/05/09 03:09:43;;;;;;;3.33;3.23;;;16.20;99.90;;;;;;5138945;27;21024;-68
2023/05/09 03:12:12;;;;;;;3.40;3.30;;;16.20;99.90;;;;;;5139587;27;20464;-68
2023/05/09 03:14:39;;;;;;;6.63;6.13;;;16.20;99.90;;;;;;5130688;27;20472;-67
2023/05/09 03:17:06;;;;;;;3.57;3.47;;;16.10;99.90;;;;;;5142835;27;20491;-67
2023/05/09 03:19:32;;;;;;;3.20;3.10;;;16.10;99.90;;;;;;5141829;27;20464;-68
2023/05/09 03:21:59;;;;;;;3.60;3.50;;;16.10;99.90;;;;;;5141983;27;21004;-67
2023/05/09 03:24:27;;;;;;;3.30;3.20;;;16.10;99.90;;;;;;5141962;27;20519;-67
2023/05/09 03:26:54;;;;;;;4.70;4.50;;;16.10;99.90;;;;;;5142112;27;20471;-67
2023/05/09 03:29:22;;;;;;;3.60;3.50;;;16.10;99.90;;;;;;5140213;27;20569;-67
2023/05/09 03:31:50;;;;;;;3.70;3.60;;;16.00;99.90;;;;;;5135160;27;20459;-67
2023/05/09 03:34:17;;;;;;;3.60;3.50;;;16.00;99.90;;;;;;5142814;27;20455;-67
2023/05/09 03:36:44;;;;;;;3.83;3.73;;;16.00;99.90;;;;;;5132997;27;20463;-67
2023/05/09 03:39:11;;;;;;;3.63;3.53;;;16.00;99.90;;;;;;5145635;27;20803;-67
2023/05/09 03:41:38;;;;;;;3.50;3.40;;;15.90;99.90;;;;;;5146537;27;20464;-68
2023/05/09 03:44:05;;;;;;;6.20;5.70;;;15.90;99.90;;;;;;5143565;27;20863;-67
2023/05/09 03:46:34;;;;;;;3.70;3.60;;;15.90;99.90;;;;;;5142399;27;20543;-69
2023/05/09 03:49:03;;;;;;;3.87;3.77;;;15.90;99.90;;;;;;5139675;27;21015;-67
2023/05/09 03:51:29;;;;;;;3.63;3.53;;;16.00;99.90;;;;;;5147341;27;20455;-67
2023/05/09 03:53:56;;;;;;;3.40;3.30;;;16.00;99.90;;;;;;5145324;27;20452;-67
2023/05/09 03:56:24;;;;;;;4.60;4.50;;;16.00;99.90;;;;;;5147114;27;20957;-67
2023/05/09 03:58:51;;;;;;;3.53;3.43;;;16.00;99.90;;;;;;5143848;27;20467;-67
2023/05/09 04:01:18;;;;;;;3.70;3.60;;;16.00;99.90;;;;;;5146495;27;20462;-67
2023/05/09 04:03:47;;;;;;;3.70;3.60;;;16.00;99.90;;;;;;5134775;27;20542;-68
2023/05/09 04:06:14;;;;;;;3.67;3.57;;;16.00;99.90;;;;;;5140315;27;20825;-67
2023/05/09 04:08:41;;;;;;;3.90;3.80;;;16.10;99.90;;;;;;5148856;27;20468;-67
2023/05/09 04:11:07;;;;;;;3.87;3.77;;;16.10;99.90;;;;;;5139242;27;20452;-67
2023/05/09 04:13:34;;;;;;;4.03;3.93;;;16.10;99.90;;;;;;5150436;27;20654;-68
2023/05/09 04:16:01;;;;;;;4.03;3.93;;;16.10;99.90;;;;;;5144107;27;20480;-68
2023/05/09 04:18:29;;;;;;;3.90;3.80;;;16.00;99.90;;;;;;5143422;27;20475;-67
2023/05/09 04:20:58;;;;;;;4.20;4.10;;;16.10;99.90;;;;;;5148506;27;20455;-68
2023/05/09 04:23:24;;;;;;;4.53;4.43;;;16.10;99.90;;;;;;5136011;27;20480;-68
2023/05/09 04:25:53;;;;;;;4.90;4.60;;;16.10;99.90;;;;;;5144300;27;21191;-67
2023/05/09 04:28:20;;;;;;;4.30;4.20;;;16.10;99.90;;;;;;5139676;27;20456;-67
2023/05/09 04:30:47;;;;;;;4.20;4.10;;;16.20;99.90;;;;;;5144894;27;20487;-67
2023/05/09 04:33:13;;;;;;;4.23;4.13;;;16.30;99.90;;;;;;5145250;27;20866;-67
2023/05/09 04:35:41;;;;;;;4.50;4.40;;;16.40;99.90;;;;;;5147968;27;20447;-68
2023/05/09 04:38:10;;;;;;;4.57;4.47;;;16.40;99.90;;;;;;5134761;27;20498;-67
2023/05/09 04:40:37;;;;;;;4.50;4.40;;;16.40;99.90;;;;;;5135114;27;20463;-67
2023/05/09 04:43:03;;;;;;;5.63;5.43;;;16.40;99.90;;;;;;5143828;27;20447;-67
2023/05/09 04:45:30;;;;;;;4.50;4.40;;;16.30;99.90;;;;;;5141014;27;20570;-67
2023/05/09 04:47:57;;;;;;;4.20;4.10;;;16.20;99.90;;;;;;5153302;27;20474;-67
2023/05/09 04:50:24;;;;;;;5.00;4.80;;;16.30;99.90;;;;;;5139158;27;20483;-66
2023/05/09 04:52:51;;;;;;;4.40;4.30;;;16.40;99.90;;;;;;5142558;27;20956;-67
2023/05/09 04:55:19;;;;;;;4.57;4.47;;;16.40;99.90;;;;;;5147867;27;20519;-67
2023/05/09 04:57:47;;;;;;;4.97;4.87;;;16.40;99.90;;;;;;5136572;27;20457;-67
2023/05/09 05:00:15;;;;;;;4.93;4.77;;;16.50;99.90;;;;;;5140834;27;20685;-68
2023/05/09 05:02:42;;;;;;;4.93;4.73;;;16.60;99.90;;;;;;5133947;27;20553;-68
2023/05/09 05:05:10;;;;;;;4.70;4.60;;;16.50;99.90;;;;;;5130217;27;20457;-68
2023/05/09 05:07:37;;;;;;;4.80;4.60;;;16.70;99.90;;;;;;5144964;27;20912;-67
2023/05/09 05:10:06;;;;;;;5.50;5.30;;;16.60;99.90;;;;;;5136246;27;20491;-67
2023/05/09 05:12:34;;;;;;;5.17;5.07;;;16.80;99.90;;;;;;5141150;27;20495;-67
2023/05/09 05:15:01;;;;;;;5.97;5.77;;;17.00;99.90;;;;;;5143387;27;20969;-68
2023/05/09 05:17:29;;;;;;;6.53;6.23;;;17.10;99.90;;;;;;5140493;27;20973;-67
2023/05/09 05:19:55;;;;;;;5.50;5.30;;;17.20;99.90;;;;;;5145516;27;20553;-66
2023/05/09 05:22:23;;;;;;;8.37;7.93;;;17.40;99.90;;;;;;5139924;27;20841;-67
2023/05/09 05:24:50;;;;;;;6.10;5.90;;;17.50;99.90;;;;;;5143520;27;20456;-67
2023/05/09 05:27:17;;;;;;;6.13;5.93;;;17.70;99.90;;;;;;5134543;27;20973;-66
2023/05/09 05:29:45;;;;;;;9.63;7.40;;;17.80;99.90;;;;;;5140919;27;20535;-67
2023/05/09 05:32:12;;;;;;;18.43;7.77;;;17.90;99.90;;;;;;5147677;27;20924;-66
2023/05/09 05:34:39;;;;;;;7.27;6.97;;;17.80;99.90;;;;;;5134178;27;20490;-66
2023/05/09 05:37:05;;;;;;;9.33;8.90;;;18.10;99.90;;;;;;5143606;27;20969;-67
2023/05/09 05:39:32;;;;;;;7.47;7.20;;;18.00;99.90;;;;;;5136158;27;21423;-67
2023/05/09 05:41:59;;;;;;;6.80;6.60;;;18.00;99.90;;;;;;5139271;27;20583;-67
2023/05/09 05:44:26;;;;;;;6.90;6.70;;;17.90;99.90;;;;;;5141811;27;20466;-67
2023/05/09 05:46:54;;;;;;;8.53;8.23;;;18.10;99.90;;;;;;5145896;27;20459;-67
2023/05/09 05:49:20;;;;;;;8.43;7.63;;;18.00;99.90;;;;;;5138849;27;20463;-66
2023/05/09 05:51:47;;;;;;;10.60;10.10;;;18.10;99.90;;;;;;5138244;27;20913;-67
2023/05/09 05:54:14;;;;;;;7.20;7.00;;;17.90;99.90;;;;;;5133830;27;20515;-66
2023/05/09 05:56:41;;;;;;;9.30;8.80;;;17.70;99.90;;;;;;5133449;27;20521;-67
2023/05/09 05:59:08;;;;;;;10.37;9.73;;;17.50;99.90;;;;;;5144291;27;20455;-67
2023/05/09 06:01:35;;;;;;;9.17;8.40;;;17.50;99.90;;;;;;5137138;27;20869;-66
2023/05/09 06:04:03;;;;;;;8.50;8.20;;;17.70;99.90;;;;;;5140170;27;20511;-66
2023/05/09 06:06:31;;;;;;;7.40;7.10;;;17.90;99.90;;;;;;5141009;27;20448;-67
2023/05/09 06:08:59;;;;;;;19.23;11.40;;;17.70;99.90;;;;;;5132545;27;20468;-67
2023/05/09 06:11:26;;;;;;;13.27;12.67;;;17.70;99.90;;;;;;5129764;27;20591;-66
2023/05/09 06:13:53;;;;;;;11.10;10.43;;;17.70;99.90;;;;;;5139308;27;21140;-68
2023/05/09 06:16:20;;;;;;;9.07;8.67;;;17.80;99.90;;;;;;5144268;27;20475;-67
2023/05/09 06:18:47;;;;;;;8.10;7.80;;;17.70;99.90;;;;;;5140699;27;20571;-66
2023/05/09 06:21:15;;;;;;;8.93;8.63;;;17.70;99.90;;;;;;5126067;27;20456;-67
2023/05/09 06:23:42;;;;;;;13.90;12.67;;;17.70;99.90;;;;;;5136592;27;20464;-67
2023/05/09 06:26:09;;;;;;;9.00;8.70;;;18.00;99.90;;;;;;5134145;27;20458;-67
2023/05/09 06:28:36;;;;;;;9.07;8.53;;;18.20;99.90;;;;;;5139434;27;20452;-67
2023/05/09 06:31:03;;;;;;;8.07;7.80;;;18.10;99.90;;;;;;5128407;27;21049;-67
2023/05/09 06:33:30;;;;;;;9.53;8.60;;;18.20;99.90;;;;;;5132774;27;20494;-67
2023/05/09 06:35:59;;;;;;;15.83;14.80;;;18.20;99.90;;;;;;5129331;27;20483;-67
2023/05/09 06:38:27;;;;;;;8.87;8.47;;;18.30;99.90;;;;;;5132812;27;20563;-67
2023/05/09 06:40:54;;;;;;;11.27;10.77;;;18.30;99.90;;;;;;5137051;27;20504;-68
2023/05/09 06:43:21;;;;;;;9.57;8.80;;;18.20;99.90;;;;;;5133748;27;20589;-67
2023/05/09 06:45:48;;;;;;;12.07;11.40;;;18.20;99.90;;;;;;5128031;27;20464;-66
2023/05/09 06:48:15;;;;;;;11.03;10.47;;;18.30;99.90;;;;;;5128042;27;20459;-67
2023/05/09 06:50:42;;;;;;;10.43;9.93;;;18.20;99.90;;;;;;5130600;27;20491;-67
2023/05/09 06:53:08;;;;;;;11.03;10.07;;;18.40;99.90;;;;;;5131530;27;20458;-67
2023/05/09 06:55:36;;;;;;;9.50;9.20;;;18.30;99.90;;;;;;5138968;27;21010;-67
2023/05/09 06:58:03;;;;;;;9.77;9.30;;;18.50;99.90;;;;;;5146523;27;20459;-67
2023/05/09 07:00:30;;;;;;;11.60;11.03;;;18.70;99.90;;;;;;5134244;27;20492;-67
2023/05/09 07:02:57;;;;;;;9.10;8.80;;;18.80;99.90;;;;;;5143420;27;20890;-67
2023/05/09 07:05:25;;;;;;;10.33;9.93;;;18.80;99.90;;;;;;5143153;27;20899;-67
2023/05/09 07:07:53;;;;;;;13.90;11.10;;;18.80;99.90;;;;;;5142546;27;20455;-67
2023/05/09 07:10:21;;;;;;;12.50;11.80;;;19.00;99.90;;;;;;5138291;27;20557;-68
2023/05/09 07:12:49;;;;;;;11.87;11.30;;;18.90;99.90;;;;;;5138118;27;20443;-67
2023/05/09 07:15:17;;;;;;;12.33;11.57;;;19.10;99.90;;;;;;5143379;27;20562;-68
2023/05/09 07:17:44;;;;;;;14.53;13.73;;;19.10;99.90;;;;;;5140663;27;20475;-67
2023/05/09 07:20:11;;;;;;;11.43;10.87;;;19.20;99.90;;;;;;5146936;27;20455;-67
2023/05/09 07:22:38;;;;;;;14.43;12.60;;;19.20;99.90;;;;;;5142428;27;20515;-67
2023/05/09 07:25:07;;;;;;;12.43;11.27;;;19.30;99.90;;;;;;5140930;27;20460;-67
2023/05/09 07:27:34;;;;;;;14.00;13.17;;;19.40;99.90;;;;;;5141121;27;20525;-67
2023/05/09 07:30:02;;;;;;;14.00;12.97;;;19.40;99.90;;;;;;5141032;27;20825;-67
2023/05/09 07:32:29;;;;;;;17.50;16.43;;;19.50;99.90;;;;;;5141642;27;20501;-67
2023/05/09 07:34:56;;;;;;;14.70;13.70;;;19.70;99.90;;;;;;5128096;27;20976;-67
2023/05/09 07:37:23;;;;;;;13.30;12.73;;;19.80;99.90;;;;;;5128373;27;20471;-68
2023/05/09 07:39:50;;;;;;;14.53;13.63;;;19.80;99.90;;;;;;5140582;27;20459;-67
2023/05/09 07:42:17;;;;;;;15.20;13.73;;;20.10;99.90;;;;;;5137292;27;20460;-67
2023/05/09 07:44:44;;;;;;;13.10;12.60;;;20.20;99.90;;;;;;5140370;27;20456;-67
2023/05/09 07:47:12;;;;;;;15.30;14.50;;;20.40;99.90;;;;;;5130943;27;20899;-67
2023/05/09 07:49:42;;;;;;;14.17;13.57;;;20.70;99.90;;;;;;5133455;27;20464;-67
2023/05/09 07:52:08;;;;;;;17.23;16.03;;;20.90;99.90;;;;;;5136502;27;20546;-68
2023/05/09 07:54:36;;;;;;;14.67;14.07;;;21.10;99.90;;;;;;5140829;27;20491;-68
2023/05/09 07:57:02;;;;;;;15.83;15.03;;;21.30;99.90;;;;;;5143719;27;20476;-68
2023/05/09 07:59:29;;;;;;;14.80;14.00;;;21.50;99.90;;;;;;5135339;27;20452;-68
2023/05/09 08:01:56;;;;;;;15.90;15.00;;;21.60;99.90;;;;;;5137104;27;20848;-68
2023/05/09 08:04:24;;;;;;;21.57;19.87;;;21.70;99.90;;;;;;5142413;27;20849;-68
2023/05/09 08:06:51;;;;;;;17.83;16.40;;;21.70;99.90;;;;;;5141861;27;20465;-68
2023/05/09 08:09:18;;;;;;;17.27;16.17;;;22.20;99.90;;;;;;5140007;27;20456;-68
2023/05/09 08:11:45;;;;;;;14.67;13.97;;;22.00;99.90;;;;;;5140163;27;20861;-67
2023/05/09 08:14:12;;;;;;;16.40;15.50;;;22.30;99.90;;;;;;5142341;27;20487;-68
2023/05/09 08:16:40;;;;;;;18.90;17.80;;;22.50;99.90;;;;;;5134500;27;20478;-67
2023/05/09 08:19:08;;;;;;;16.10;15.20;;;22.90;99.90;;;;;;5141320;27;20456;-68
2023/05/09 08:21:36;;;;;;;16.40;15.50;;;22.90;99.90;;;;;;5143069;27;20546;-68
2023/05/09 08:24:02;;;;;;;14.93;14.33;;;22.90;99.90;;;;;;5139717;27;20541;-68
2023/05/09 08:26:30;;;;;;;16.40;15.50;;;23.10;99.90;;;;;;5140148;27;20451;-68
2023/05/09 08:28:58;;;;;;;16.30;15.40;;;23.30;99.90;;;;;;5140359;27;20462;-68
2023/05/09 08:31:25;;;;;;;19.00;17.33;;;23.50;99.90;;;;;;5134454;27;20483;-68
2023/05/09 08:33:52;;;;;;;16.17;15.37;;;23.60;99.90;;;;;;5134479;27;20921;-68
2023/05/09 08:36:19;;;;;;;18.87;17.33;;;23.60;99.90;;;;;;5143005;27;20447;-68
2023/05/09 08:38:48;;;;;;;17.10;16.17;;;23.70;99.90;;;;;;5138679;27;20491;-68
2023/05/09 08:41:15;;;;;;;16.53;15.63;;;23.70;99.90;;;;;;5140723;27;20463;-69
2023/05/09 08:43:43;;;;;;;18.43;17.43;;;23.60;99.90;;;;;;5139308;27;20459;-69
2023/05/09 08:46:11;;;;;;;16.37;15.50;;;23.70;99.90;;;;;;5136866;27;20459;-68
2023/05/09 08:48:39;;;;;;;17.83;16.57;;;24.50;99.90;;;;;;5135313;27;20466;-68
2023/05/09 08:51:07;;;;;;;16.30;15.30;;;24.80;99.90;;;;;;5140422;27;20543;-68
2023/05/09 08:53:34;;;;;;;16.13;15.33;;;24.50;99.90;;;;;;5139718;27;20826;-68
2023/05/09 08:56:03;;;;;;;17.67;16.43;;;24.80;99.90;;;;;;5141785;27;20524;-68
2023/05/09 08:58:31;;;;;;;16.13;15.43;;;25.30;99.90;;;;;;5143431;27;20447;-69
2023/05/09 09:00:58;;;;;;;17.10;16.10;;;25.40;99.90;;;;;;5136380;27;20456;-68
2023/05/09 09:03:26;;;;;;;15.40;14.73;;;25.40;99.90;;;;;;5140170;27;20508;-68
2023/05/09 09:05:54;;;;;;;16.93;16.13;;;25.10;99.90;;;;;;5142511;27;20452;-68
2023/05/09 09:08:22;;;;;;;17.83;16.83;;;25.20;99.90;;;;;;5138109;27;20460;-69
2023/05/09 09:10:49;;;;;;;17.53;16.60;;;25.30;99.90;;;;;;5139022;27;20866;-68
2023/05/09 09:13:17;;;;;;;17.03;16.17;;;25.60;99.90;;;;;;5139108;27;20963;-68
2023/05/09 09:15:46;;;;;;;15.83;15.13;;;25.80;99.90;;;;;;5137686;27;20471;-68
2023/05/09 09:18:18;;;;;;;17.60;16.50;;;25.20;99.90;;;;;;5138701;27;20487;-69
2023/05/09 09:20:48;;;;;;;16.67;15.83;;;24.90;99.90;;;;;;5137875;27;20536;-68
2023/05/09 09:23:19;;;;;;;16.87;16.07;;;24.90;99.90;;;;;;5138859;27;20452;-68
2023/05/09 09:25:46;;;;;;;16.07;15.37;;;24.50;99.90;;;;;;5138012;27;21206;-69
2023/05/09 09:28:13;;;;;;;16.83;16.03;;;24.50;99.90;;;;;;5140507;27;21037;-69
2023/05/09 09:30:47;;;;;;;17.57;16.77;;;24.50;99.90;;;;;;5131667;27;20482;-68
2023/05/09 09:33:21;;;;;;;17.40;16.50;;;24.50;99.90;;;;;;5138193;27;20780;-68
2023/05/09 09:35:49;;;;;;;18.57;17.10;;;24.50;99.90;;;;;;5138226;27;20896;-68
2023/05/09 09:38:18;;;;;;;17.37;16.07;;;25.00;99.90;;;;;;5135640;27;20467;-70
2023/05/09 09:40:55;;;;;;;16.07;15.37;;;24.80;99.90;;;;;;5133491;27;20555;-68
2023/05/09 09:43:28;;;;;;;16.90;16.00;;;24.70;99.90;;;;;;5138701;27;20484;-68
2023/05/09 09:45:57;;;;;;;21.37;16.70;;;25.00;99.90;;;;;;5135359;27;21077;-68
2023/05/09 09:48:25;;;;;;;17.10;15.90;;;24.90;99.90;;;;;;5137428;27;20505;-68
2023/05/09 09:50:56;;;;;;;15.77;15.07;;;24.70;99.90;;;;;;5135970;27;21208;-68
2023/05/09 09:53:23;;;;;;;16.10;15.40;;;24.40;99.90;;;;;;5140592;27;20460;-69
2023/05/09 09:55:52;;;;;;;16.77;15.87;;;23.90;99.90;;;;;;5136844;27;20444;-67
2023/05/09 09:58:23;;;;;;;15.50;14.80;;;23.60;99.90;;;;;;5137599;27;20905;-68
2023/05/09 10:01:06;;;;;;;15.37;14.67;;;23.80;99.90;;;;;;5137675;27;20719;-68
2023/05/09 10:03:37;;;;;;;15.93;15.10;;;24.00;99.90;;;;;;5139561;27;20504;-68
2023/05/09 10:06:04;;;;;;;16.50;15.73;;;24.20;99.90;;;;;;5135950;27;20737;-68
2023/05/09 10:08:31;;;;;;;15.57;14.87;;;23.80;99.90;;;;;;5134196;27;20467;-68
2023/05/09 10:10:59;;;;;;;15.03;14.43;;;23.60;99.90;;;;;;5140841;27;20566;-68
2023/05/09 10:13:27;;;;;;;16.23;15.43;;;23.40;99.90;;;;;;5135907;27;20467;-69
2023/05/09 10:15:56;;;;;;;16.40;15.33;;;23.30;99.90;;;;;;5142975;27;20525;-69
2023/05/09 10:18:29;;;;;;;15.67;14.97;;;23.30;99.90;;;;;;5138448;27;20475;-68
2023/05/09 10:20:59;;;;;;;15.37;14.50;;;23.20;99.90;;;;;;5141109;27;20475;-68
2023/05/09 10:23:28;;;;;;;14.60;14.00;;;22.80;99.90;;;;;;5143036;27;20467;-68
2023/05/09 10:26:04;;;;;;;15.27;14.50;;;22.80;99.90;;;;;;5138581;27;20833;-68
2023/05/09 10:28:35;;;;;;;16.20;15.30;;;22.80;99.90;;;;;;5143158;27;20829;-69
2023/05/09 10:31:07;;;;;;;15.27;14.57;;;23.00;99.90;;;;;;5132190;27;20570;-68
2023/05/09 10:33:42;;;;;;;15.73;15.03;;;23.20;99.90;;;;;;5134573;27;20896;-68
2023/05/09 10:36:10;;;;;;;15.23;14.53;;;23.40;99.90;;;;;;5138981;27;20497;-68
2023/05/09 10:38:38;;;;;;;16.70;15.70;;;23.20;99.90;;;;;;5137579;27;20463;-68
2023/05/09 10:41:05;;;;;;;15.23;14.53;;;23.60;99.90;;;;;;5132597;27;20456;-68
2023/05/09 10:43:33;;;;;;;15.60;14.80;;;24.20;99.90;;;;;;5136758;27;20459;-68
2023/05/09 10:46:01;;;;;;;15.50;14.80;;;24.10;99.90;;;;;;5136972;27;20458;-68
2023/05/09 10:48:28;;;;;;;15.67;14.97;;;24.20;99.90;;;;;;5135563;27;20460;-68
2023/05/09 10:50:56;;;;;;;15.60;14.90;;;23.80;99.90;;;;;;5130675;27;20463;-69
2023/05/09 10:53:23;;;;;;;15.23;14.60;;;23.20;99.90;;;;;;5130874;27;20460;-69
2023/05/09 10:55:52;;;;;;;15.83;14.77;;;22.80;99.90;;;;;;5131255;27;20563;-67
2023/05/09 10:58:25;;;;;;;14.80;14.20;;;22.90;99.90;;;;;;5134024;27;20457;-67
2023/05/09 11:00:55;;;;;;;14.90;14.30;;;23.30;99.90;;;;;;5136757;27;20532;-68
2023/05/09 11:03:23;;;;;;;15.57;14.87;;;24.10;99.90;;;;;;5144702;27;20941;-67
2023/05/09 11:05:51;;;;;;;16.07;15.37;;;24.60;99.90;;;;;;5137026;27;20649;-68
2023/05/09 11:08:24;;;;;;;15.67;14.97;;;24.80;99.90;;;;;;5139191;27;20450;-68
2023/05/09 11:10:51;;;;;;;17.10;16.20;;;24.80;99.90;;;;;;5144540;27;20457;-68
2023/05/09 11:13:22;;;;;;;16.00;15.30;;;24.70;99.90;;;;;;5138337;27;20459;-68
2023/05/09 11:16:05;;;;;;;15.37;14.67;;;24.60;99.90;;;;;;5129730;27;20478;-68
2023/05/09 11:18:32;;;;;;;15.70;15.00;;;25.00;99.90;;;;;;5131204;27;20475;-68
2023/05/09 11:21:00;;;;;;;15.10;14.50;;;23.70;99.90;;;;;;5139534;27;20452;-67
2023/05/09 11:23:30;;;;;;;16.20;15.40;;;23.50;99.90;;;;;;5138279;27;20559;-69
2023/05/09 11:26:06;;;;;;;18.00;17.20;;;24.30;99.90;;;;;;5129051;27;20570;-69
2023/05/09 11:28:34;;;;;;;15.80;15.10;;;24.60;99.90;;;;;;5131123;27;20451;-67
2023/05/09 11:31:12;;;;;;;15.20;14.60;;;24.70;99.90;;;;;;5141957;27;20841;-68
2023/05/09 11:33:40;;;;;;;17.50;16.70;;;24.90;99.90;;;;;;5138457;27;20688;-68
2023/05/09 11:36:18;;;;;;;21.40;20.20;;;24.50;99.90;;;;;;5145685;27;20854;-68
2023/05/09 11:38:48;;;;;;;27.87;25.87;;;24.00;99.90;;;;;;5133782;27;20892;-67
2023/05/09 11:41:15;;;;;;;29.47;26.97;;;23.50;99.90;;;;;;5136125;27;20491;-67
2023/05/09 11:43:43;;;;;;;25.27;23.40;;;22.40;99.90;;;;;;5127008;27;20455;-67
2023/05/09 11:46:10;;;;;;;28.37;26.00;;;21.60;99.90;;;;;;5135632;27;20749;-67
2023/05/09 11:48:41;;;;;;;25.00;23.20;;;20.60;99.90;;;;;;5128033;27;20459;-67
2023/05/09 11:51:08;;;;;;;23.20;21.50;;;20.00;99.90;;;;;;5133627;27;20539;-67
2023/05/09 11:53:35;;;;;;;18.40;17.40;;;19.40;99.90;;;;;;5131678;27;20595;-68
2023/05/09 11:56:07;;;;;;;15.57;14.77;;;19.30;99.90;;;;;;5126161;27;20564;-67
2023/05/09 11:58:38;;;;;;;13.67;13.07;;;19.30;99.90;;;;;;5133838;27;20470;-67
2023/05/09 12:01:05;;;;;;;14.07;12.57;;;19.00;99.90;;;;;;5140345;27;20455;-67
2023/05/09 12:03:32;;;;;;;12.57;11.97;;;18.70;99.90;;;;;;5137889;27;20563;-68
2023/05/09 12:06:00;;;;;;;12.20;11.70;;;18.60;99.90;;;;;;5139133;27;20455;-67
2023/05/09 12:08:27;;;;;;;15.33;13.87;;;18.70;99.90;;;;;;5136433;27;20467;-68
2023/05/09 12:10:54;;;;;;;12.63;12.10;;;18.50;99.90;;;;;;5138296;27;20489;-67
2023/05/09 12:13:22;;;;;;;11.10;10.60;;;18.40;99.90;;;;;;5143724;27;20817;-67
2023/05/09 12:15:49;;;;;;;11.87;11.20;;;18.20;99.90;;;;;;5142507;27;20483;-67
2023/05/09 12:18:17;;;;;;;11.17;10.67;;;18.10;99.90;;;;;;5139772;27;20567;-68
2023/05/09 12:20:45;;;;;;;10.20;9.80;;;18.20;99.90;;;;;;5144411;27;20504;-68
2023/05/09 12:23:13;;;;;;;10.63;10.03;;;18.20;99.90;;;;;;5135980;27;20467;-67
2023/05/09 12:25:48;;;;;;;10.57;10.07;;;18.40;99.90;;;;;;5142911;27;20467;-67
2023/05/09 12:28:16;;;;;;;9.07;8.77;;;18.50;99.90;;;;;;5143952;27;20756;-67
2023/05/09 12:30:45;;;;;;;9.30;8.90;;;18.70;99.90;;;;;;5141202;27;20460;-67
2023/05/09 12:33:12;;;;;;;9.20;8.90;;;19.00;99.90;;;;;;5134010;27;20484;-67
2023/05/09 12:35:40;;;;;;;10.73;10.10;;;19.10;99.90;;;;;;5143985;27;20463;-67
2023/05/09 12:38:06;;;;;;;9.97;9.57;;;19.10;99.90;;;;;;5137176;27;20463;-67
2023/05/09 12:40:33;;;;;;;10.83;10.33;;;19.10;99.90;;;;;;5144865;27;20492;-68
2023/05/09 12:43:01;;;;;;;10.10;9.70;;;19.10;99.90;;;;;;5146756;27;20458;-68